sensor_id;sensor_type;location;lat;lon;timestamp;noise_LAeq;noise_LA_min;noise_LA_max;noise_LA01;noise_LA95
1754;Laerm;58380;48.312;9.246;2023-07-29T06:24:31;41.26;33.14;51.85;;
1754;Laerm;58380;48.312;9.246;2023-07-29T06:26:57;40.32;34.79;50.19;;
1754;Laerm;58380;48.312;9.246;2023-07-29T06:29:23;42.12;34.42;50.76;;
1754;Laerm;58380;48.312;9.246;2023-07-29T06:31:48;41.65;34.64;49.48;;
1754;Laerm;58380;48.312;9.246;2023-07-29T06:34:14;39.83;34.49;51.10;;
1754;Laerm;58380;48.312;9.246;2023-07-29T06:36:39;40.85;32.61;48.81;;
1754;Laerm;58380;48.312;9.246;2023-07-29T06:39:04;42.20;33.88;54.52;;
1754;Laerm;58380;48.312;9.246;2023-07-29T06:41:30;41.74;33.68;56.02;;
1754;Laerm;58380;48.312;9.246;2023-07-29T06:43:55;42.18;34.51;58.91;;
1754;Laerm;58380;48.312;9.246;2023-07-29T06:46:21;42.71;35.65;51.20;;
1754;Laerm;58380;48.312;9.246;2023-07-29T06:48:47;42.15;34.71;49.70;;
1754;Laerm;58380;48.312;9.246;2023-07-29T06:51:12;43.01;34.38;53.94;;
1754;Laerm;58380;48.312;9.246;2023-07-29T06:53:38;43.15;36.69;50.81;;
1754;Laerm;58380;48.312;9.246;2023-07-29T06:56:03;41.58;34.75;50.02;;
1754;Laerm;58380;48.312;9.246;2023-07-29T06:58:29;43.97;35.34;53.20;;
1754;Laerm;58380;48.312;9.246;2023-07-29T07:00:55;42.47;33.94;61.68;;
1754;Laerm;58380;48.312;9.246;2023-07-29T07:03:20;41.72;33.47;49.82;;
1754;Laerm;58380;48.312;9.246;2023-07-29T07:05:46;40.14;33.15;48.80;;
1754;Laerm;58380;48.312;9.246;2023-07-29T07:08:11;42.91;36.13;50.28;;
1754;Laerm;58380;48.312;9.246;2023-07-29T07:10:37;41.92;34.72;49.97;;
1754;Laerm;58380;48.312;9.246;2023-07-29T07:13:02;42.71;37.08;53.31;;
1754;Laerm;58380;48.312;9.246;2023-07-29T07:15:27;41.96;35.77;50.95;;
1754;Laerm;58380;48.312;9.246;2023-07-29T07:17:53;43.35;37.55;55.67;;
1754;Laerm;58380;48.312;9.246;2023-07-29T07:20:18;44.13;38.50;58.35;;
1754;Laerm;58380;48.312;9.246;2023-07-29T07:22:44;42.80;33.10;61.67;;
1754;Laerm;58380;48.312;9.246;2023-07-29T07:25:09;41.88;34.87;49.10;;
1754;Laerm;58380;48.312;9.246;2023-07-29T07:27:36;43.12;33.90;56.10;;
1754;Laerm;58380;48.312;9.246;2023-07-29T07:30:03;41.55;33.26;56.44;;
1754;Laerm;58380;48.312;9.246;2023-07-29T07:32:28;42.43;35.56;67.71;;
1754;Laerm;58380;48.312;9.246;2023-07-29T07:34:54;44.10;35.92;52.90;;
1754;Laerm;58380;48.312;9.246;2023-07-29T07:37:19;50.35;38.13;62.83;;
1754;Laerm;58380;48.312;9.246;2023-07-29T07:39:44;43.52;37.65;51.61;;
1754;Laerm;58380;48.312;9.246;2023-07-29T07:42:10;42.98;34.30;60.16;;
1754;Laerm;58380;48.312;9.246;2023-07-29T07:44:35;40.58;34.04;49.72;;
1754;Laerm;58380;48.312;9.246;2023-07-29T07:47:01;47.59;38.15;69.92;;
1754;Laerm;58380;48.312;9.246;2023-07-29T07:49:26;43.24;34.74;65.43;;
1754;Laerm;58380;48.312;9.246;2023-07-29T07:51:51;47.64;35.27;80.29;;
1754;Laerm;58380;48.312;9.246;2023-07-29T07:54:17;50.98;38.42;84.87;;
1754;Laerm;58380;48.312;9.246;2023-07-29T07:56:43;54.88;44.42;87.33;;
1754;Laerm;58380;48.312;9.246;2023-07-29T07:59:08;53.06;43.10;79.57;;
1754;Laerm;58380;48.312;9.246;2023-07-29T08:01:40;50.10;39.23;78.98;;
1754;Laerm;58380;48.312;9.246;2023-07-29T08:04:06;49.43;40.23;78.57;;
1754;Laerm;58380;48.312;9.246;2023-07-29T08:06:32;48.89;40.97;72.21;;
1754;Laerm;58380;48.312;9.246;2023-07-29T08:08:58;46.66;39.91;69.28;;
1754;Laerm;58380;48.312;9.246;2023-07-29T08:11:24;49.57;38.76;71.54;;
1754;Laerm;58380;48.312;9.246;2023-07-29T08:13:50;50.50;42.80;75.65;;
1754;Laerm;58380;48.312;9.246;2023-07-29T08:16:15;48.69;39.40;73.30;;
1754;Laerm;58380;48.312;9.246;2023-07-29T08:18:40;52.50;45.01;73.58;;
1754;Laerm;58380;48.312;9.246;2023-07-29T08:21:06;51.42;45.77;76.99;;
1754;Laerm;58380;48.312;9.246;2023-07-29T08:23:36;55.41;46.19;84.71;;
1754;Laerm;58380;48.312;9.246;2023-07-29T08:26:04;48.27;37.90;70.74;;
1754;Laerm;58380;48.312;9.246;2023-07-29T08:28:36;48.18;37.84;72.07;;
1754;Laerm;58380;48.312;9.246;2023-07-29T08:31:02;49.35;36.94;76.59;;
1754;Laerm;58380;48.312;9.246;2023-07-29T08:33:29;51.33;43.18;70.28;;
1754;Laerm;58380;48.312;9.246;2023-07-29T08:35:55;47.79;43.38;59.19;;
1754;Laerm;58380;48.312;9.246;2023-07-29T08:38:21;47.23;38.50;59.64;;
1754;Laerm;58380;48.312;9.246;2023-07-29T08:40:54;45.56;36.91;62.60;;
1754;Laerm;58380;48.312;9.246;2023-07-29T08:43:29;46.52;35.67;73.62;;
1754;Laerm;58380;48.312;9.246;2023-07-29T08:45:59;50.91;36.28;74.47;;
1754;Laerm;58380;48.312;9.246;2023-07-29T08:48:42;47.22;34.60;74.40;;
1754;Laerm;58380;48.312;9.246;2023-07-29T08:51:10;47.96;33.06;72.50;;
1754;Laerm;58380;48.312;9.246;2023-07-29T08:53:37;46.51;35.54;70.67;;
1754;Laerm;58380;48.312;9.246;2023-07-29T08:56:04;45.35;37.10;69.24;;
1754;Laerm;58380;48.312;9.246;2023-07-29T08:58:31;46.03;35.66;65.90;;
1754;Laerm;58380;48.312;9.246;2023-07-29T09:00:57;51.75;36.68;83.57;;
1754;Laerm;58380;48.312;9.246;2023-07-29T09:03:23;47.14;38.37;70.39;;
1754;Laerm;58380;48.312;9.246;2023-07-29T09:05:48;46.32;35.51;73.96;;
1754;Laerm;58380;48.312;9.246;2023-07-29T09:08:14;43.65;35.84;56.76;;
1754;Laerm;58380;48.312;9.246;2023-07-29T09:10:40;47.25;37.28;79.54;;
1754;Laerm;58380;48.312;9.246;2023-07-29T09:13:07;58.54;36.53;91.43;;
1754;Laerm;58380;48.312;9.246;2023-07-29T09:15:35;52.14;36.66;77.20;;
1754;Laerm;58380;48.312;9.246;2023-07-29T09:18:15;67.96;38.55;91.35;;
1754;Laerm;58380;48.312;9.246;2023-07-29T09:20:41;69.93;39.29;92.84;;
1754;Laerm;58380;48.312;9.246;2023-07-29T09:23:10;67.76;36.40;90.14;;
1754;Laerm;58380;48.312;9.246;2023-07-29T09:25:37;69.69;37.51;94.42;;
1754;Laerm;58380;48.312;9.246;2023-07-29T09:28:12;68.32;38.21;88.31;;
1754;Laerm;58380;48.312;9.246;2023-07-29T09:30:39;69.59;37.51;98.17;;
1754;Laerm;58380;48.312;9.246;2023-07-29T09:33:06;53.34;39.12;76.36;;
1754;Laerm;58380;48.312;9.246;2023-07-29T09:35:37;64.25;36.04;95.38;;
1754;Laerm;58380;48.312;9.246;2023-07-29T09:38:04;64.68;35.77;98.23;;
1754;Laerm;58380;48.312;9.246;2023-07-29T09:40:38;51.01;35.54;84.32;;
1754;Laerm;58380;48.312;9.246;2023-07-29T09:43:05;44.25;36.68;67.15;;
1754;Laerm;58380;48.312;9.246;2023-07-29T09:45:34;59.48;36.96;86.62;;
1754;Laerm;58380;48.312;9.246;2023-07-29T09:48:04;52.91;36.85;79.24;;
1754;Laerm;58380;48.312;9.246;2023-07-29T09:50:34;55.66;41.31;85.88;;
1754;Laerm;58380;48.312;9.246;2023-07-29T09:53:01;61.65;43.62;88.93;;
1754;Laerm;58380;48.312;9.246;2023-07-29T09:55:28;60.30;44.29;89.71;;
1754;Laerm;58380;48.312;9.246;2023-07-29T09:57:59;56.69;44.92;84.97;;
1754;Laerm;58380;48.312;9.246;2023-07-29T10:00:30;57.16;46.30;79.53;;
1754;Laerm;58380;48.312;9.246;2023-07-29T10:02:58;53.45;45.82;71.90;;
1754;Laerm;58380;48.312;9.246;2023-07-29T10:05:27;49.89;42.85;73.13;;
1754;Laerm;58380;48.312;9.246;2023-07-29T10:07:54;57.85;47.07;80.98;;
1754;Laerm;58380;48.312;9.246;2023-07-29T10:10:20;52.40;40.98;74.76;;
1754;Laerm;58380;48.312;9.246;2023-07-29T10:12:46;47.69;36.69;73.24;;
1754;Laerm;58380;48.312;9.246;2023-07-29T10:15:12;49.40;37.64;74.00;;
1754;Laerm;58380;48.312;9.246;2023-07-29T10:17:39;48.99;36.88;75.90;;
1754;Laerm;58380;48.312;9.246;2023-07-29T10:20:10;49.09;38.59;76.86;;
1754;Laerm;58380;48.312;9.246;2023-07-29T10:22:42;47.95;36.69;66.10;;
1754;Laerm;58380;48.312;9.246;2023-07-29T10:25:16;50.09;36.02;77.74;;
1754;Laerm;58380;48.312;9.246;2023-07-29T10:27:56;53.27;36.65;80.99;;
1754;Laerm;58380;48.312;9.246;2023-07-29T10:30:21;55.01;35.28;84.05;;
1754;Laerm;58380;48.312;9.246;2023-07-29T10:32:50;46.74;34.93;72.63;;
1754;Laerm;58380;48.312;9.246;2023-07-29T10:35:17;52.29;36.37;83.21;;
1754;Laerm;58380;48.312;9.246;2023-07-29T10:37:42;53.97;36.70;78.94;;
1754;Laerm;58380;48.312;9.246;2023-07-29T10:40:11;49.56;38.84;69.25;;
1754;Laerm;58380;48.312;9.246;2023-07-29T10:42:38;53.92;35.53;86.26;;
1754;Laerm;58380;48.312;9.246;2023-07-29T10:45:24;47.88;37.81;73.93;;
1754;Laerm;58380;48.312;9.246;2023-07-29T10:47:49;50.07;39.73;76.12;;
1754;Laerm;58380;48.312;9.246;2023-07-29T10:50:21;48.10;35.49;69.35;;
1754;Laerm;58380;48.312;9.246;2023-07-29T10:52:52;48.85;37.98;72.18;;
1754;Laerm;58380;48.312;9.246;2023-07-29T10:55:27;51.03;38.38;76.18;;
1754;Laerm;58380;48.312;9.246;2023-07-29T10:58:09;51.42;37.33;75.92;;
1754;Laerm;58380;48.312;9.246;2023-07-29T11:00:35;44.85;39.26;65.55;;
1754;Laerm;58380;48.312;9.246;2023-07-29T11:03:04;44.18;38.99;54.44;;
1754;Laerm;58380;48.312;9.246;2023-07-29T11:05:51;42.36;38.26;48.59;;
1754;Laerm;58380;48.312;9.246;2023-07-29T11:08:21;43.86;38.70;52.55;;
1754;Laerm;58380;48.312;9.246;2023-07-29T11:11:08;45.82;38.81;54.29;;
1754;Laerm;58380;48.312;9.246;2023-07-29T11:13:38;44.47;40.05;54.42;;
1754;Laerm;58380;48.312;9.246;2023-07-29T11:16:05;44.90;40.18;55.89;;
1754;Laerm;58380;48.312;9.246;2023-07-29T11:18:35;46.82;40.72;56.93;;
1754;Laerm;58380;48.312;9.246;2023-07-29T11:21:03;45.65;40.34;55.39;;
1754;Laerm;58380;48.312;9.246;2023-07-29T11:23:36;44.37;39.54;50.88;;
1754;Laerm;58380;48.312;9.246;2023-07-29T11:26:04;42.36;37.69;50.07;;
1754;Laerm;58380;48.312;9.246;2023-07-29T11:28:30;43.02;38.77;49.53;;
1754;Laerm;58380;48.312;9.246;2023-07-29T11:30:57;41.90;35.45;54.23;;
1754;Laerm;58380;48.312;9.246;2023-07-29T11:33:27;41.87;36.90;59.06;;
1754;Laerm;58380;48.312;9.246;2023-07-29T11:35:54;42.81;37.94;51.02;;
1754;Laerm;58380;48.312;9.246;2023-07-29T11:38:21;43.44;38.16;51.38;;
1754;Laerm;58380;48.312;9.246;2023-07-29T11:40:59;45.67;38.64;58.28;;
1754;Laerm;58380;48.312;9.246;2023-07-29T11:43:25;43.69;37.67;54.15;;
1754;Laerm;58380;48.312;9.246;2023-07-29T11:45:51;44.86;37.61;53.63;;
1754;Laerm;58380;48.312;9.246;2023-07-29T11:48:17;44.79;37.19;56.97;;
1754;Laerm;58380;48.312;9.246;2023-07-29T11:50:43;43.17;38.23;53.72;;
1754;Laerm;58380;48.312;9.246;2023-07-29T11:53:11;42.98;38.50;52.09;;
1754;Laerm;58380;48.312;9.246;2023-07-29T11:55:37;44.20;37.61;55.98;;
1754;Laerm;58380;48.312;9.246;2023-07-29T11:58:02;44.60;37.91;56.94;;
1754;Laerm;58380;48.312;9.246;2023-07-29T12:00:28;43.76;35.86;52.95;;
1754;Laerm;58380;48.312;9.246;2023-07-29T12:02:54;49.70;37.19;78.55;;
1754;Laerm;58380;48.312;9.246;2023-07-29T12:05:22;47.39;37.94;56.51;;
1754;Laerm;58380;48.312;9.246;2023-07-29T12:07:49;44.86;38.25;54.90;;
1754;Laerm;58380;48.312;9.246;2023-07-29T12:10:14;43.25;34.08;53.38;;
1754;Laerm;58380;48.312;9.246;2023-07-29T12:12:48;45.68;35.50;60.02;;
1754;Laerm;58380;48.312;9.246;2023-07-29T12:15:26;47.53;37.52;67.71;;
1754;Laerm;58380;48.312;9.246;2023-07-29T12:17:56;50.67;35.85;79.99;;
1754;Laerm;58380;48.312;9.246;2023-07-29T12:20:23;54.36;37.73;81.40;;
1754;Laerm;58380;48.312;9.246;2023-07-29T12:22:56;48.61;36.95;72.27;;
1754;Laerm;58380;48.312;9.246;2023-07-29T12:25:22;45.66;33.46;70.21;;
1754;Laerm;58380;48.312;9.246;2023-07-29T12:27:47;50.61;35.18;75.83;;
1754;Laerm;58380;48.312;9.246;2023-07-29T12:30:13;61.94;39.22;93.53;;
1754;Laerm;58380;48.312;9.246;2023-07-29T12:32:45;55.66;34.80;84.16;;
1754;Laerm;58380;48.312;9.246;2023-07-29T12:35:11;54.46;37.77;82.19;;
1754;Laerm;58380;48.312;9.246;2023-07-29T12:37:37;48.93;35.76;73.36;;
1754;Laerm;58380;48.312;9.246;2023-07-29T12:40:04;50.99;37.30;78.06;;
1754;Laerm;58380;48.312;9.246;2023-07-29T12:42:30;49.62;36.40;63.87;;
1754;Laerm;58380;48.312;9.246;2023-07-29T12:44:55;49.29;38.04;64.72;;
1754;Laerm;58380;48.312;9.246;2023-07-29T12:47:21;51.75;35.32;78.97;;
1754;Laerm;58380;48.312;9.246;2023-07-29T12:49:46;53.09;38.15;73.89;;
1754;Laerm;58380;48.312;9.246;2023-07-29T12:52:11;54.14;38.51;77.32;;
1754;Laerm;58380;48.312;9.246;2023-07-29T12:54:37;50.69;31.89;77.34;;
1754;Laerm;58380;48.312;9.246;2023-07-29T12:57:02;48.65;33.02;66.82;;
1754;Laerm;58380;48.312;9.246;2023-07-29T12:59:28;52.94;35.73;82.93;;
1754;Laerm;58380;48.312;9.246;2023-07-29T13:01:53;67.14;36.27;93.90;;
1754;Laerm;58380;48.312;9.246;2023-07-29T13:04:19;70.68;33.35;93.11;;
1754;Laerm;58380;48.312;9.246;2023-07-29T13:06:44;68.95;37.61;90.21;;
1754;Laerm;58380;48.312;9.246;2023-07-29T13:09:09;67.95;34.70;97.59;;
1754;Laerm;58380;48.312;9.246;2023-07-29T13:11:35;68.24;39.97;91.45;;
1754;Laerm;58380;48.312;9.246;2023-07-29T13:14:00;69.86;39.30;89.60;;
1754;Laerm;58380;48.312;9.246;2023-07-29T13:16:27;64.06;37.95;87.79;;
1754;Laerm;58380;48.312;9.246;2023-07-29T13:18:53;53.34;34.39;86.07;;
1754;Laerm;58380;48.312;9.246;2023-07-29T13:21:18;62.97;37.05;90.71;;
1754;Laerm;58380;48.312;9.246;2023-07-29T13:23:43;49.10;37.47;74.80;;
1754;Laerm;58380;48.312;9.246;2023-07-29T13:26:09;49.89;36.31;69.39;;
1754;Laerm;58380;48.312;9.246;2023-07-29T13:28:34;56.91;37.33;90.44;;
1754;Laerm;58380;48.312;9.246;2023-07-29T13:31:00;51.51;38.47;73.70;;
1754;Laerm;58380;48.312;9.246;2023-07-29T13:33:26;51.44;34.65;74.69;;
1754;Laerm;58380;48.312;9.246;2023-07-29T13:35:51;50.97;35.35;69.22;;
1754;Laerm;58380;48.312;9.246;2023-07-29T13:38:17;51.42;39.95;71.15;;
1754;Laerm;58380;48.312;9.246;2023-07-29T13:40:42;48.97;39.21;68.76;;
1754;Laerm;58380;48.312;9.246;2023-07-29T13:43:08;52.76;42.76;71.98;;
1754;Laerm;58380;48.312;9.246;2023-07-29T13:45:34;56.01;43.79;70.43;;
1754;Laerm;58380;48.312;9.246;2023-07-29T13:48:00;55.67;41.78;81.36;;
1754;Laerm;58380;48.312;9.246;2023-07-29T13:50:25;59.38;44.49;71.05;;
1754;Laerm;58380;48.312;9.246;2023-07-29T13:52:50;52.17;44.13;64.93;;
1754;Laerm;58380;48.312;9.246;2023-07-29T13:55:16;58.83;43.59;77.77;;
1754;Laerm;58380;48.312;9.246;2023-07-29T13:57:41;52.62;45.11;65.98;;
1754;Laerm;58380;48.312;9.246;2023-07-29T14:00:07;59.25;46.83;83.95;;
1754;Laerm;58380;48.312;9.246;2023-07-29T14:02:33;76.40;42.70;108.06;;
1754;Laerm;58380;48.312;9.246;2023-07-29T14:04:59;57.84;45.72;70.71;;
1754;Laerm;58380;48.312;9.246;2023-07-29T14:07:24;51.46;35.12;71.97;;
1754;Laerm;58380;48.312;9.246;2023-07-29T14:09:49;50.56;33.87;57.24;;
1754;Laerm;58380;48.312;9.246;2023-07-29T14:12:15;57.34;34.48;84.44;;
1754;Laerm;58380;48.312;9.246;2023-07-29T14:14:43;47.65;33.30;63.56;;
1754;Laerm;58380;48.312;9.246;2023-07-29T14:17:09;50.55;33.27;71.30;;
1754;Laerm;58380;48.312;9.246;2023-07-29T14:19:35;52.25;33.14;75.98;;
1754;Laerm;58380;48.312;9.246;2023-07-29T14:22:01;56.55;39.07;65.31;;
1754;Laerm;58380;48.312;9.246;2023-07-29T14:24:26;53.76;44.75;69.74;;
1754;Laerm;58380;48.312;9.246;2023-07-29T14:26:51;57.91;46.01;79.34;;
1754;Laerm;58380;48.312;9.246;2023-07-29T14:29:17;56.42;44.76;81.22;;
1754;Laerm;58380;48.312;9.246;2023-07-29T14:31:42;56.53;46.54;72.85;;
1754;Laerm;58380;48.312;9.246;2023-07-29T14:34:08;53.37;37.89;78.05;;
1754;Laerm;58380;48.312;9.246;2023-07-29T14:36:33;57.68;47.29;69.10;;
1754;Laerm;58380;48.312;9.246;2023-07-29T14:38:58;56.93;45.69;74.34;;
1754;Laerm;58380;48.312;9.246;2023-07-29T14:41:24;54.41;46.26;78.59;;
1754;Laerm;58380;48.312;9.246;2023-07-29T14:43:49;56.83;48.25;73.34;;
1754;Laerm;58380;48.312;9.246;2023-07-29T14:46:15;69.68;48.40;96.64;;
1754;Laerm;58380;48.312;9.246;2023-07-29T14:48:40;68.61;59.19;93.37;;
1754;Laerm;58380;48.312;9.246;2023-07-29T14:51:05;68.09;59.70;89.41;;
1754;Laerm;58380;48.312;9.246;2023-07-29T14:53:31;72.16;63.36;98.54;;
1754;Laerm;58380;48.312;9.246;2023-07-29T14:55:56;64.06;43.00;94.43;;
1754;Laerm;58380;48.312;9.246;2023-07-29T14:58:22;48.23;38.70;64.74;;
1754;Laerm;58380;48.312;9.246;2023-07-29T15:00:48;48.03;37.74;72.79;;
1754;Laerm;58380;48.312;9.246;2023-07-29T15:03:14;49.68;43.42;72.72;;
1754;Laerm;58380;48.312;9.246;2023-07-29T15:05:39;50.01;41.12;80.44;;
1754;Laerm;58380;48.312;9.246;2023-07-29T15:08:05;52.00;42.25;79.90;;
1754;Laerm;58380;48.312;9.246;2023-07-29T15:10:31;54.65;48.19;81.92;;
1754;Laerm;58380;48.312;9.246;2023-07-29T15:12:56;51.92;40.46;79.53;;
1754;Laerm;58380;48.312;9.246;2023-07-29T15:15:22;51.33;38.78;78.37;;
1754;Laerm;58380;48.312;9.246;2023-07-29T15:17:47;48.47;40.04;63.26;;
1754;Laerm;58380;48.312;9.246;2023-07-29T15:20:13;52.56;42.76;76.80;;
1754;Laerm;58380;48.312;9.246;2023-07-29T15:22:38;56.72;40.31;87.75;;
1754;Laerm;58380;48.312;9.246;2023-07-29T15:25:04;56.55;42.03;85.06;;
1754;Laerm;58380;48.312;9.246;2023-07-29T15:27:30;66.09;55.78;87.85;;
1754;Laerm;58380;48.312;9.246;2023-07-29T15:29:56;50.71;42.35;70.43;;
1754;Laerm;58380;48.312;9.246;2023-07-29T15:32:22;47.59;39.94;71.00;;
1754;Laerm;58380;48.312;9.246;2023-07-29T15:34:49;49.68;36.69;76.63;;
1754;Laerm;58380;48.312;9.246;2023-07-29T15:37:14;49.43;38.10;76.29;;
1754;Laerm;58380;48.312;9.246;2023-07-29T15:39:40;52.72;38.03;70.69;;
1754;Laerm;58380;48.312;9.246;2023-07-29T15:42:05;51.35;38.92;68.14;;
1754;Laerm;58380;48.312;9.246;2023-07-29T15:44:31;45.84;38.00;66.75;;
1754;Laerm;58380;48.312;9.246;2023-07-29T15:46:56;53.33;42.60;78.15;;
1754;Laerm;58380;48.312;9.246;2023-07-29T15:49:22;52.43;43.53;77.72;;
1754;Laerm;58380;48.312;9.246;2023-07-29T15:51:48;51.67;40.70;77.20;;
1754;Laerm;58380;48.312;9.246;2023-07-29T15:54:14;52.71;38.96;69.72;;
1754;Laerm;58380;48.312;9.246;2023-07-29T15:56:39;50.61;42.12;74.18;;
1754;Laerm;58380;48.312;9.246;2023-07-29T15:59:06;47.63;37.67;66.93;;
1754;Laerm;58380;48.312;9.246;2023-07-29T16:01:31;53.06;34.28;83.73;;
1754;Laerm;58380;48.312;9.246;2023-07-29T16:03:57;55.26;36.65;86.14;;
1754;Laerm;58380;48.312;9.246;2023-07-29T16:06:25;56.24;36.82;81.63;;
1754;Laerm;58380;48.312;9.246;2023-07-29T16:08:51;53.36;37.77;70.52;;
1754;Laerm;58380;48.312;9.246;2023-07-29T16:11:16;53.65;39.46;72.58;;
1754;Laerm;58380;48.312;9.246;2023-07-29T16:13:43;54.83;33.19;73.50;;
1754;Laerm;58380;48.312;9.246;2023-07-29T16:16:09;53.85;36.30;76.50;;
1754;Laerm;58380;48.312;9.246;2023-07-29T16:18:35;53.06;39.94;70.76;;
1754;Laerm;58380;48.312;9.246;2023-07-29T16:21:00;54.06;38.14;72.85;;
1754;Laerm;58380;48.312;9.246;2023-07-29T16:23:31;55.19;34.40;72.09;;
1754;Laerm;58380;48.312;9.246;2023-07-29T16:25:57;54.02;35.62;72.98;;
1754;Laerm;58380;48.312;9.246;2023-07-29T16:28:23;51.73;34.91;72.40;;
1754;Laerm;58380;48.312;9.246;2023-07-29T16:30:48;52.34;32.69;76.57;;
1754;Laerm;58380;48.312;9.246;2023-07-29T16:33:14;50.92;34.56;77.93;;
1754;Laerm;58380;48.312;9.246;2023-07-29T16:35:39;43.73;32.63;66.36;;
1754;Laerm;58380;48.312;9.246;2023-07-29T16:38:06;47.87;34.09;74.51;;
1754;Laerm;58380;48.312;9.246;2023-07-29T16:40:32;42.66;34.48;61.55;;
1754;Laerm;58380;48.312;9.246;2023-07-29T16:42:58;43.74;37.52;56.07;;
1754;Laerm;58380;48.312;9.246;2023-07-29T16:45:24;42.87;32.38;56.30;;
1754;Laerm;58380;48.312;9.246;2023-07-29T16:47:50;45.66;37.71;65.91;;
1754;Laerm;58380;48.312;9.246;2023-07-29T16:50:16;45.01;34.87;66.85;;
1754;Laerm;58380;48.312;9.246;2023-07-29T16:52:42;44.48;35.73;60.78;;
1754;Laerm;58380;48.312;9.246;2023-07-29T16:55:08;42.61;31.97;54.27;;
1754;Laerm;58380;48.312;9.246;2023-07-29T16:57:34;43.69;34.50;65.00;;
1754;Laerm;58380;48.312;9.246;2023-07-29T16:59:59;43.37;35.13;66.16;;
1754;Laerm;58380;48.312;9.246;2023-07-29T17:02:25;44.04;33.64;60.21;;
1754;Laerm;58380;48.312;9.246;2023-07-29T17:04:50;42.24;33.04;65.30;;
1754;Laerm;58380;48.312;9.246;2023-07-29T17:07:15;44.73;36.90;70.22;;
1754;Laerm;58380;48.312;9.246;2023-07-29T17:09:44;44.37;35.35;65.67;;
1754;Laerm;58380;48.312;9.246;2023-07-29T17:12:13;50.40;34.71;79.02;;
1754;Laerm;58380;48.312;9.246;2023-07-29T17:14:39;54.01;35.82;86.12;;
1754;Laerm;58380;48.312;9.246;2023-07-29T17:17:05;46.33;33.94;74.82;;
1754;Laerm;58380;48.312;9.246;2023-07-29T17:19:30;42.59;36.64;57.44;;
1754;Laerm;58380;48.312;9.246;2023-07-29T17:21:56;43.55;34.00;61.66;;
1754;Laerm;58380;48.312;9.246;2023-07-29T17:24:21;41.05;33.42;47.97;;
1754;Laerm;58380;48.312;9.246;2023-07-29T17:26:47;44.18;36.14;63.32;;
1754;Laerm;58380;48.312;9.246;2023-07-29T17:29:12;42.39;35.01;53.12;;
1754;Laerm;58380;48.312;9.246;2023-07-29T17:31:38;42.49;33.98;50.57;;
1754;Laerm;58380;48.312;9.246;2023-07-29T17:34:03;40.61;33.37;51.64;;
1754;Laerm;58380;48.312;9.246;2023-07-29T17:36:29;42.20;33.50;49.18;;
1754;Laerm;58380;48.312;9.246;2023-07-29T17:38:55;40.86;32.10;47.88;;
1754;Laerm;58380;48.312;9.246;2023-07-29T17:41:20;41.82;35.21;49.05;;
1754;Laerm;58380;48.312;9.246;2023-07-29T17:43:45;41.16;35.42;49.29;;
1754;Laerm;58380;48.312;9.246;2023-07-29T17:46:13;40.44;32.28;52.18;;
1754;Laerm;58380;48.312;9.246;2023-07-29T17:48:45;42.24;32.98;55.33;;
1754;Laerm;58380;48.312;9.246;2023-07-29T17:51:11;39.66;31.63;47.66;;
1754;Laerm;58380;48.312;9.246;2023-07-29T17:53:36;50.83;34.87;64.30;;
1754;Laerm;58380;48.312;9.246;2023-07-29T17:56:03;42.74;35.69;49.33;;
1754;Laerm;58380;48.312;9.246;2023-07-29T17:58:29;39.35;33.01;49.73;;
1754;Laerm;58380;48.312;9.246;2023-07-29T18:00:56;40.05;33.53;50.19;;
1754;Laerm;58380;48.312;9.246;2023-07-29T18:03:24;40.94;33.39;49.93;;
1754;Laerm;58380;48.312;9.246;2023-07-29T18:05:50;43.15;32.36;60.64;;
1754;Laerm;58380;48.312;9.246;2023-07-29T18:08:15;44.48;32.80;57.42;;
1754;Laerm;58380;48.312;9.246;2023-07-29T18:10:41;43.44;36.90;52.18;;
1754;Laerm;58380;48.312;9.246;2023-07-29T18:13:06;41.78;34.06;60.70;;
1754;Laerm;58380;48.312;9.246;2023-07-29T18:15:32;42.07;34.46;51.85;;
1754;Laerm;58380;48.312;9.246;2023-07-29T18:17:57;43.26;34.63;54.82;;
1754;Laerm;58380;48.312;9.246;2023-07-29T18:20:23;44.67;37.11;54.95;;
1754;Laerm;58380;48.312;9.246;2023-07-29T18:22:48;43.96;33.96;52.43;;
1754;Laerm;58380;48.312;9.246;2023-07-29T18:25:14;43.73;34.19;56.25;;
1754;Laerm;58380;48.312;9.246;2023-07-29T18:27:40;43.45;35.66;50.36;;
1754;Laerm;58380;48.312;9.246;2023-07-29T18:30:06;43.03;37.11;48.72;;
1754;Laerm;58380;48.312;9.246;2023-07-29T18:32:32;42.45;33.77;52.13;;
1754;Laerm;58380;48.312;9.246;2023-07-29T18:34:57;43.29;36.00;54.70;;
1754;Laerm;58380;48.312;9.246;2023-07-29T18:37:23;43.74;34.42;63.16;;
1754;Laerm;58380;48.312;9.246;2023-07-29T18:39:48;41.01;31.74;61.87;;
1754;Laerm;58380;48.312;9.246;2023-07-29T18:42:13;38.80;32.66;48.21;;
1754;Laerm;58380;48.312;9.246;2023-07-29T18:44:41;43.38;33.32;52.28;;
1754;Laerm;58380;48.312;9.246;2023-07-29T18:47:06;41.52;35.59;51.37;;
1754;Laerm;58380;48.312;9.246;2023-07-29T18:49:33;42.53;33.64;52.03;;
1754;Laerm;58380;48.312;9.246;2023-07-29T18:51:58;39.24;34.15;47.72;;
1754;Laerm;58380;48.312;9.246;2023-07-29T18:54:24;40.28;31.71;53.83;;
1754;Laerm;58380;48.312;9.246;2023-07-29T18:56:49;40.39;34.73;46.80;;
1754;Laerm;58380;48.312;9.246;2023-07-29T18:59:16;38.87;31.90;48.32;;
1754;Laerm;58380;48.312;9.246;2023-07-29T19:01:44;40.95;33.98;50.10;;
1754;Laerm;58380;48.312;9.246;2023-07-29T19:04:09;43.12;34.99;50.49;;
1754;Laerm;58380;48.312;9.246;2023-07-29T19:06:34;43.58;33.63;52.43;;
1754;Laerm;58380;48.312;9.246;2023-07-29T19:09:00;46.40;35.23;52.96;;
1754;Laerm;58380;48.312;9.246;2023-07-29T19:11:25;47.28;33.88;51.80;;
1754;Laerm;58380;48.312;9.246;2023-07-29T19:13:51;47.78;36.97;51.27;;
1754;Laerm;58380;48.312;9.246;2023-07-29T19:16:16;47.87;39.46;52.14;;
1754;Laerm;58380;48.312;9.246;2023-07-29T19:18:46;47.81;39.77;53.37;;
1754;Laerm;58380;48.312;9.246;2023-07-29T19:21:11;49.47;40.68;53.11;;
1754;Laerm;58380;48.312;9.246;2023-07-29T19:23:37;49.13;39.65;53.36;;
1754;Laerm;58380;48.312;9.246;2023-07-29T19:26:02;49.21;40.72;53.25;;
1754;Laerm;58380;48.312;9.246;2023-07-29T19:28:27;49.50;41.43;53.14;;
1754;Laerm;58380;48.312;9.246;2023-07-29T19:30:53;49.38;38.66;52.97;;
1754;Laerm;58380;48.312;9.246;2023-07-29T19:33:21;48.76;38.51;53.82;;
1754;Laerm;58380;48.312;9.246;2023-07-29T19:35:56;48.55;41.17;66.82;;
1754;Laerm;58380;48.312;9.246;2023-07-29T19:38:23;48.63;40.01;59.54;;
1754;Laerm;58380;48.312;9.246;2023-07-29T19:40:48;47.58;40.72;51.66;;
1754;Laerm;58380;48.312;9.246;2023-07-29T19:43:14;46.64;39.24;51.63;;
1754;Laerm;58380;48.312;9.246;2023-07-29T19:45:47;47.51;40.29;52.04;;
1754;Laerm;58380;48.312;9.246;2023-07-29T19:48:12;47.15;39.36;51.88;;
1754;Laerm;58380;48.312;9.246;2023-07-29T19:50:38;46.00;38.30;51.48;;
1754;Laerm;58380;48.312;9.246;2023-07-29T19:53:03;47.34;35.94;52.62;;
1754;Laerm;58380;48.312;9.246;2023-07-29T19:55:29;48.48;40.74;52.27;;
1754;Laerm;58380;48.312;9.246;2023-07-29T19:57:56;49.14;41.95;55.16;;
1754;Laerm;58380;48.312;9.246;2023-07-29T20:00:21;48.34;40.71;55.91;;
1754;Laerm;58380;48.312;9.246;2023-07-29T20:02:47;48.75;41.36;52.50;;
1754;Laerm;58380;48.312;9.246;2023-07-29T20:05:12;46.76;36.69;52.07;;
1754;Laerm;58380;48.312;9.246;2023-07-29T20:07:38;44.91;35.07;51.82;;
1754;Laerm;58380;48.312;9.246;2023-07-29T20:10:04;46.20;38.57;51.79;;
1754;Laerm;58380;48.312;9.246;2023-07-29T20:12:30;47.71;40.38;51.36;;
1754;Laerm;58380;48.312;9.246;2023-07-29T20:14:56;47.78;39.11;51.32;;
1754;Laerm;58380;48.312;9.246;2023-07-29T20:17:25;46.66;39.80;51.17;;